Time;durP1;ratioP1;P1;durP2;ratioP2;P2;SDS_P1;SDS_P2;PMS_P1;PMS_P2;Temp;Humidity;BMP_temperature;BMP_pressure;BME280_temperature;BME280_humidity;BME280_pressure;Samples;Min_cycle;Max_cycle;Signal;HPM_P1;HPM_P2
2023/03/30 00:00:55;;;;;;;4.22;2.42;;;;;;;;;;2056392;28;20138;-79
2023/03/30 00:02:17;;;;;;;3.08;2.22;;;;;;;;;;2058853;28;20511;-79
2023/03/30 00:03:39;;;;;;;2.50;2.30;;;;;;;;;;2057609;28;20039;-79
2023/03/30 00:05:01;;;;;;;3.15;2.10;;;;;;;;;;2055077;28;20030;-79
2023/03/30 00:06:21;;;;;;;4.25;2.55;;;;;;;;;;2054772;28;20573;-79
2023/03/30 00:07:46;;;;;;;3.17;2.22;;;;;;;;;;2054872;28;20022;-79
2023/03/30 00:09:06;;;;;;;5.15;2.25;;;;;;;;;;2050007;28;20027;-79
2023/03/30 00:10:26;;;;;;;4.43;2.88;;;;;;;;;;2053031;28;20034;-81
2023/03/30 00:11:45;;;;;;;4.97;2.72;;;;;;;;;;2052707;28;20115;-78
2023/03/30 00:13:04;;;;;;;2.83;2.60;;;;;;;;;;2060651;28;20023;-77
2023/03/30 00:14:28;;;;;;;8.13;2.50;;;;;;;;;;2058684;28;20022;-77
2023/03/30 00:15:48;;;;;;;3.42;2.88;;;;;;;;;;2064525;28;20026;-77
2023/03/30 00:17:08;;;;;;;3.97;2.13;;;;;;;;;;2059854;28;20429;-77
2023/03/30 00:18:28;;;;;;;4.22;2.40;;;;;;;;;;2059041;28;20035;-80
2023/03/30 00:19:48;;;;;;;3.67;2.70;;;;;;;;;;2059767;28;20569;-78
2023/03/30 00:21:09;;;;;;;4.00;2.05;;;;;;;;;;2070125;28;20026;-78
2023/03/30 00:22:28;;;;;;;4.15;2.78;;;;;;;;;;2064296;28;20101;-79
2023/03/30 00:23:48;;;;;;;4.60;2.95;;;;;;;;;;2061995;28;20027;-79
2023/03/30 00:25:09;;;;;;;3.05;2.38;;;;;;;;;;2059434;28;20153;-78
2023/03/30 00:26:28;;;;;;;4.40;2.30;;;;;;;;;;2067556;28;20426;-79
2023/03/30 00:27:47;;;;;;;2.85;2.50;;;;;;;;;;2065689;28;20043;-79
2023/03/30 00:29:06;;;;;;;3.95;2.30;;;;;;;;;;2060753;28;20043;-79
2023/03/30 00:30:25;;;;;;;2.95;2.40;;;;;;;;;;2059060;28;20392;-79
2023/03/30 00:31:44;;;;;;;2.67;2.47;;;;;;;;;;2059911;28;20076;-79
2023/03/30 00:33:03;;;;;;;2.72;2.17;;;;;;;;;;2057338;28;20034;-79
2023/03/30 00:34:23;;;;;;;2.28;2.08;;;;;;;;;;2053892;28;20030;-79
2023/03/30 00:35:42;;;;;;;2.40;2.17;;;;;;;;;;2060980;28;20034;-79
2023/03/30 00:37:02;;;;;;;5.18;2.50;;;;;;;;;;2068414;28;20031;-79
2023/03/30 00:38:21;;;;;;;3.17;2.60;;;;;;;;;;2075094;28;20881;-79
2023/03/30 00:39:40;;;;;;;2.90;2.55;;;;;;;;;;2060412;28;20023;-79
2023/03/30 00:41:00;;;;;;;5.15;2.30;;;;;;;;;;2056185;28;20456;-79
2023/03/30 00:42:21;;;;;;;3.63;2.42;;;;;;;;;;2058892;28;20027;-79
2023/03/30 00:44:00;;;;;;;3.58;2.03;;;;;;;;;;2057595;28;20134;-78
2023/03/30 00:45:22;;;;;;;4.20;1.95;;;;;;;;;;2059026;28;20027;-78
2023/03/30 00:46:41;;;;;;;2.38;2.10;;;;;;;;;;2056900;28;20043;-79
2023/03/30 00:48:12;;;;;;;2.63;2.42;;;;;;;;;;2058132;28;20031;-78
2023/03/30 00:49:34;;;;;;;2.35;2.15;;;;;;;;;;2074484;28;20033;-81
2023/03/30 00:50:56;;;;;;;3.25;1.90;;;;;;;;;;2064017;28;20392;-79
2023/03/30 00:52:18;;;;;;;5.50;2.30;;;;;;;;;;2054618;28;20114;-78
2023/03/30 00:53:40;;;;;;;5.95;2.45;;;;;;;;;;2060667;28;20030;-79
2023/03/30 00:54:59;;;;;;;2.22;1.63;;;;;;;;;;2059746;28;20485;-79
2023/03/30 00:56:24;;;;;;;3.03;1.95;;;;;;;;;;2057513;28;20042;-78
2023/03/30 00:57:44;;;;;;;2.38;2.17;;;;;;;;;;2059479;28;20062;-80
2023/03/30 00:59:03;;;;;;;3.08;1.70;;;;;;;;;;2061218;28;20034;-78
2023/03/30 01:00:22;;;;;;;2.33;2.08;;;;;;;;;;2055317;28;20050;-78
2023/03/30 01:01:41;;;;;;;2.28;2.08;;;;;;;;;;2059546;28;20035;-78
2023/03/30 01:03:03;;;;;;;4.78;2.30;;;;;;;;;;2058881;28;20109;-79
2023/03/30 01:04:24;;;;;;;2.55;2.35;;;;;;;;;;2055760;28;20062;-79
2023/03/30 01:05:43;;;;;;;3.65;1.83;;;;;;;;;;2058933;28;20067;-79
2023/03/30 01:07:04;;;;;;;4.38;2.22;;;;;;;;;;2059923;28;20031;-79
2023/03/30 01:08:26;;;;;;;2.40;2.08;;;;;;;;;;2055140;28;20524;-79
2023/03/30 01:09:45;;;;;;;3.38;2.00;;;;;;;;;;2057448;28;20022;-79
2023/03/30 01:11:05;;;;;;;5.50;1.85;;;;;;;;;;2059349;28;20050;-79
2023/03/30 01:12:24;;;;;;;4.10;1.92;;;;;;;;;;2057056;28;20504;-78
2023/03/30 01:13:46;;;;;;;2.95;2.28;;;;;;;;;;2060362;28;20031;-79
2023/03/30 01:15:07;;;;;;;5.45;2.22;;;;;;;;;;2065140;28;20022;-79
2023/03/30 01:16:41;;;;;;;2.47;2.08;;;;;;;;;;2072490;28;20473;-79
2023/03/30 01:18:10;;;;;;;4.30;2.00;;;;;;;;;;2061616;28;20038;-79
2023/03/30 01:19:29;;;;;;;2.50;2.10;;;;;;;;;;2064813;28;20488;-79
2023/03/30 01:21:07;;;;;;;3.00;2.00;;;;;;;;;;2075922;28;20029;-79
2023/03/30 01:22:35;;;;;;;2.35;2.15;;;;;;;;;;2060413;28;20523;-78
2023/03/30 01:24:03;;;;;;;4.88;2.22;;;;;;;;;;2068343;28;20047;-78
2023/03/30 01:25:39;;;;;;;2.13;1.92;;;;;;;;;;2069705;28;20054;-79
2023/03/30 01:27:08;;;;;;;2.65;1.92;;;;;;;;;;2068624;28;20022;-79
2023/03/30 01:28:34;;;;;;;2.45;2.00;;;;;;;;;;2067172;28;20015;-79
2023/03/30 01:29:57;;;;;;;3.30;2.17;;;;;;;;;;2067198;28;20011;-80
2023/03/30 01:31:41;;;;;;;1.98;1.80;;;;;;;;;;2068524;28;20022;-78
2023/03/30 01:33:03;;;;;;;4.45;2.50;;;;;;;;;;2066301;28;20027;-78
2023/03/30 01:34:28;;;;;;;2.30;2.10;;;;;;;;;;2062162;28;20118;-79
2023/03/30 01:35:51;;;;;;;4.05;2.10;;;;;;;;;;2062346;28;20042;-79
2023/03/30 01:37:39;;;;;;;4.90;2.13;;;;;;;;;;2061231;28;20528;-79
2023/03/30 01:39:01;;;;;;;2.00;1.90;;;;;;;;;;2057040;28;20571;-79
2023/03/30 01:40:33;;;;;;;3.80;2.10;;;;;;;;;;2063850;28;20027;-78
2023/03/30 01:42:02;;;;;;;2.17;2.08;;;;;;;;;;2062456;28;20027;-78
2023/03/30 01:43:36;;;;;;;2.20;1.92;;;;;;;;;;2059535;28;20023;-78
2023/03/30 01:45:19;;;;;;;4.88;2.00;;;;;;;;;;2059977;28;20038;-78
2023/03/30 01:46:42;;;;;;;2.63;2.42;;;;;;;;;;2062172;28;20443;-79
2023/03/30 01:48:03;;;;;;;4.82;2.30;;;;;;;;;;2060006;28;20412;-81
2023/03/30 01:49:44;;;;;;;2.60;2.20;;;;;;;;;;2068161;28;20026;-79
2023/03/30 01:51:07;;;;;;;3.40;2.58;;;;;;;;;;2066306;28;20046;-78
2023/03/30 01:52:35;;;;;;;2.80;2.30;;;;;;;;;;2062819;28;20031;-78
2023/03/30 01:54:09;;;;;;;2.83;2.60;;;;;;;;;;2058974;28;20034;-79
2023/03/30 01:55:28;;;;;;;3.33;2.33;;;;;;;;;;2062499;28;20031;-79
2023/03/30 01:56:50;;;;;;;4.03;2.80;;;;;;;;;;2059428;28;20038;-79
2023/03/30 01:58:13;;;;;;;3.47;2.50;;;;;;;;;;2062206;28;20507;-78
2023/03/30 01:59:37;;;;;;;3.58;2.28;;;;;;;;;;2059660;28;20034;-79
2023/03/30 02:00:58;;;;;;;2.95;2.60;;;;;;;;;;2059484;28;20031;-79
2023/03/30 02:02:20;;;;;;;6.15;2.45;;;;;;;;;;2058958;28;20940;-79
2023/03/30 02:03:41;;;;;;;7.93;2.97;;;;;;;;;;2056544;28;20027;-78
2023/03/30 02:05:01;;;;;;;3.08;2.50;;;;;;;;;;2061958;28;20027;-79
2023/03/30 02:06:38;;;;;;;4.53;2.65;;;;;;;;;;2061088;28;20038;-79
2023/03/30 02:08:03;;;;;;;4.55;2.50;;;;;;;;;;2061815;28;20039;-79
2023/03/30 02:09:23;;;;;;;2.67;2.30;;;;;;;;;;2060832;28;20030;-79
2023/03/30 02:10:43;;;;;;;4.40;2.30;;;;;;;;;;2060865;28;20904;-79
2023/03/30 02:12:03;;;;;;;3.95;2.58;;;;;;;;;;2058419;28;20022;-78
2023/03/30 02:13:25;;;;;;;3.25;2.30;;;;;;;;;;2061067;28;20023;-78
2023/03/30 02:14:45;;;;;;;2.45;2.13;;;;;;;;;;2059807;28;20031;-79
2023/03/30 02:16:10;;;;;;;2.97;2.15;;;;;;;;;;2058356;28;20031;-80
2023/03/30 02:17:31;;;;;;;2.58;2.28;;;;;;;;;;2059298;28;20056;-78
2023/03/30 02:18:53;;;;;;;2.33;2.13;;;;;;;;;;2058202;28;20031;-78
2023/03/30 02:20:16;;;;;;;2.30;2.10;;;;;;;;;;2057065;28;20571;-78
2023/03/30 02:21:35;;;;;;;3.78;2.33;;;;;;;;;;2057526;28;20035;-79
2023/03/30 02:22:56;;;;;;;2.88;2.13;;;;;;;;;;2059479;28;20046;-79
2023/03/30 02:24:18;;;;;;;2.13;2.03;;;;;;;;;;2057765;28;20035;-80
2023/03/30 02:25:38;;;;;;;3.50;3.20;;;;;;;;;;2074779;28;20037;-78
2023/03/30 02:26:58;;;;;;;3.22;2.20;;;;;;;;;;2059929;28;20027;-80
2023/03/30 02:28:17;;;;;;;2.45;2.22;;;;;;;;;;2058487;28;20050;-79
2023/03/30 02:29:38;;;;;;;2.45;2.20;;;;;;;;;;2060365;28;20403;-78
2023/03/30 02:30:56;;;;;;;4.43;2.80;;;;;;;;;;2061222;28;20018;-78
2023/03/30 02:32:23;;;;;;;3.78;2.22;;;;;;;;;;2058371;28;20586;-77
2023/03/30 02:33:57;;;;;;;2.70;2.13;;;;;;;;;;2062100;28;20034;-78
2023/03/30 02:35:17;;;;;;;3.20;2.47;;;;;;;;;;2061788;28;20030;-78
2023/03/30 02:36:48;;;;;;;2.55;2.30;;;;;;;;;;2068142;28;20026;-80
2023/03/30 02:38:10;;;;;;;2.55;2.35;;;;;;;;;;2059586;28;20043;-80
2023/03/30 02:39:38;;;;;;;2.30;2.10;;;;;;;;;;2060801;28;20035;-80
2023/03/30 02:41:19;;;;;;;2.28;2.00;;;;;;;;;;2056954;28;20039;-78
2023/03/30 02:42:38;;;;;;;2.20;1.98;;;;;;;;;;2057860;28;20046;-78
2023/03/30 02:44:00;;;;;;;6.40;2.40;;;;;;;;;;2058008;28;20042;-79
2023/03/30 02:45:20;;;;;;;2.85;2.20;;;;;;;;;;2060227;28;20039;-78
2023/03/30 02:46:53;;;;;;;3.40;2.13;;;;;;;;;;2059520;28;20447;-78
2023/03/30 02:48:21;;;;;;;2.67;2.00;;;;;;;;;;2066004;28;20034;-79
2023/03/30 02:49:49;;;;;;;3.90;2.47;;;;;;;;;;2055643;28;20035;-78
2023/03/30 02:51:26;;;;;;;3.28;2.47;;;;;;;;;;2060485;28;20113;-79
2023/03/30 02:52:58;;;;;;;2.53;2.33;;;;;;;;;;2064402;28;20022;-79
2023/03/30 02:54:23;;;;;;;3.35;2.05;;;;;;;;;;2060278;28;20579;-79
2023/03/30 02:55:57;;;;;;;7.93;2.50;;;;;;;;;;2059024;28;20026;-78
2023/03/30 02:57:19;;;;;;;4.80;2.17;;;;;;;;;;2075763;28;20022;-78
2023/03/30 02:58:40;;;;;;;3.78;2.33;;;;;;;;;;2060542;28;20022;-78
2023/03/30 03:00:06;;;;;;;8.85;2.30;;;;;;;;;;2058570;28;20035;-79
2023/03/30 03:01:31;;;;;;;3.30;2.40;;;;;;;;;;2060954;28;20117;-78
2023/03/30 03:02:52;;;;;;;6.03;2.50;;;;;;;;;;2058623;28;20035;-79
2023/03/30 03:04:11;;;;;;;4.57;2.20;;;;;;;;;;2058727;28;20023;-77
2023/03/30 03:05:32;;;;;;;3.42;2.17;;;;;;;;;;2060875;28;20026;-78
2023/03/30 03:06:54;;;;;;;2.90;1.80;;;;;;;;;;2058541;28;20042;-79
2023/03/30 03:08:15;;;;;;;1.88;1.77;;;;;;;;;;2053369;28;20071;-78
2023/03/30 03:09:35;;;;;;;2.38;2.17;;;;;;;;;;2056821;28;20819;-78
2023/03/30 03:10:54;;;;;;;2.25;2.03;;;;;;;;;;2060250;28;20438;-78
2023/03/30 03:12:14;;;;;;;4.40;2.30;;;;;;;;;;2074327;28;20029;-79
2023/03/30 03:13:35;;;;;;;2.80;2.28;;;;;;;;;;2068201;28;20027;-78
2023/03/30 03:14:54;;;;;;;3.22;2.33;;;;;;;;;;2059801;28;20031;-79
2023/03/30 03:16:13;;;;;;;2.85;2.15;;;;;;;;;;2059049;28;20043;-78
2023/03/30 03:17:34;;;;;;;3.65;2.00;;;;;;;;;;2059655;28;20042;-78
2023/03/30 03:18:53;;;;;;;4.70;2.15;;;;;;;;;;2057834;28;20439;-78
2023/03/30 03:20:12;;;;;;;4.13;2.20;;;;;;;;;;2058497;28;20117;-78
2023/03/30 03:21:31;;;;;;;3.28;1.55;;;;;;;;;;2059388;28;20530;-77
2023/03/30 03:22:50;;;;;;;2.80;2.40;;;;;;;;;;2059395;28;20038;-78
2023/03/30 03:24:12;;;;;;;6.90;2.00;;;;;;;;;;2058920;28;20043;-79
2023/03/30 03:25:31;;;;;;;2.17;1.92;;;;;;;;;;2061675;28;20027;-78
2023/03/30 03:26:50;;;;;;;6.10;2.72;;;;;;;;;;2057817;28;20496;-78
2023/03/30 03:28:09;;;;;;;4.20;2.08;;;;;;;;;;2057314;28;20063;-78
2023/03/30 03:29:28;;;;;;;2.33;2.10;;;;;;;;;;2059579;28;20074;-78
2023/03/30 03:30:47;;;;;;;5.93;2.45;;;;;;;;;;2058638;28;20030;-78
2023/03/30 03:32:06;;;;;;;2.08;1.92;;;;;;;;;;2056695;28;20518;-78
2023/03/30 03:33:26;;;;;;;3.72;2.42;;;;;;;;;;2059496;28;20018;-78
2023/03/30 03:34:45;;;;;;;2.05;1.80;;;;;;;;;;2073415;28;21078;-78
2023/03/30 03:36:05;;;;;;;4.57;2.17;;;;;;;;;;2063575;28;20523;-78
2023/03/30 03:37:24;;;;;;;2.90;2.03;;;;;;;;;;2060084;28;20042;-79
2023/03/30 03:38:43;;;;;;;1.77;1.67;;;;;;;;;;2057920;28;20905;-79
2023/03/30 03:40:04;;;;;;;1.73;1.63;;;;;;;;;;2058227;28;20492;-78
2023/03/30 03:41:25;;;;;;;3.95;1.80;;;;;;;;;;2059063;28;20027;-79
2023/03/30 03:42:44;;;;;;;2.58;2.35;;;;;;;;;;2057421;28;20035;-78
2023/03/30 03:44:03;;;;;;;2.47;1.52;;;;;;;;;;2055369;28;20030;-79
2023/03/30 03:45:22;;;;;;;4.13;1.80;;;;;;;;;;2059274;28;20118;-78
2023/03/30 03:46:41;;;;;;;3.83;1.92;;;;;;;;;;2055972;28;20455;-79
2023/03/30 03:48:00;;;;;;;2.88;1.85;;;;;;;;;;2053802;28;20077;-79
2023/03/30 03:49:19;;;;;;;2.92;2.17;;;;;;;;;;2059761;28;20015;-79
2023/03/30 03:50:38;;;;;;;2.05;1.58;;;;;;;;;;2059050;28;20023;-79
2023/03/30 03:51:58;;;;;;;2.85;1.88;;;;;;;;;;2054348;28;20145;-79
2023/03/30 03:53:16;;;;;;;2.15;1.92;;;;;;;;;;2058224;28;20034;-78
2023/03/30 03:54:35;;;;;;;2.22;1.85;;;;;;;;;;2059374;28;20030;-78
2023/03/30 03:55:55;;;;;;;2.33;1.92;;;;;;;;;;2059663;28;20110;-79
2023/03/30 03:57:13;;;;;;;3.88;1.75;;;;;;;;;;2060855;28;20034;-78
2023/03/30 03:58:33;;;;;;;4.35;2.03;;;;;;;;;;2056920;28;20038;-78
2023/03/30 03:59:52;;;;;;;2.28;1.50;;;;;;;;;;2052097;28;20040;-80
2023/03/30 04:01:13;;;;;;;2.65;1.77;;;;;;;;;;2055644;28;20464;-79
2023/03/30 04:02:32;;;;;;;2.83;1.60;;;;;;;;;;2062998;28;20038;-78
2023/03/30 04:03:52;;;;;;;2.38;1.67;;;;;;;;;;2064025;28;20022;-80
2023/03/30 04:05:11;;;;;;;2.00;1.77;;;;;;;;;;2060442;28;20066;-78
2023/03/30 04:06:29;;;;;;;3.53;2.30;;;;;;;;;;2057515;28;20460;-79
2023/03/30 04:07:48;;;;;;;1.75;1.42;;;;;;;;;;2059783;28;20034;-80
2023/03/30 04:09:10;;;;;;;1.90;1.77;;;;;;;;;;2062290;28;20023;-80
2023/03/30 04:10:29;;;;;;;3.70;1.90;;;;;;;;;;2057339;28;20160;-78
2023/03/30 04:11:48;;;;;;;1.95;1.60;;;;;;;;;;2059543;28;20023;-78
2023/03/30 04:13:08;;;;;;;2.55;1.55;;;;;;;;;;2060478;28;20022;-79
2023/03/30 04:14:27;;;;;;;2.20;1.90;;;;;;;;;;2057041;28;20031;-79
2023/03/30 04:15:46;;;;;;;2.40;1.45;;;;;;;;;;2058242;28;20022;-78
2023/03/30 04:17:05;;;;;;;2.42;1.60;;;;;;;;;;2060411;28;20030;-80
2023/03/30 04:18:32;;;;;;;2.22;1.63;;;;;;;;;;2059137;28;20027;-78
2023/03/30 04:19:55;;;;;;;3.65;1.80;;;;;;;;;;2059534;28;20026;-78
2023/03/30 04:21:16;;;;;;;;;;;;;;;;;;2056541;28;20654;-78
2023/03/30 04:22:36;;;;;;;2.00;1.90;;;;;;;;;;2062820;28;19948;-78
2023/03/30 04:23:55;;;;;;;3.30;1.70;;;;;;;;;;2063191;28;20376;-78
2023/03/30 04:25:14;;;;;;;3.05;1.50;;;;;;;;;;2058649;28;20031;-78
2023/03/30 04:26:34;;;;;;;2.30;2.10;;;;;;;;;;2055799;28;20070;-78
2023/03/30 04:27:55;;;;;;;5.95;2.35;;;;;;;;;;2059132;28;20043;-80
2023/03/30 04:29:20;;;;;;;3.65;3.10;;;;;;;;;;2060885;28;20031;-78
2023/03/30 04:30:39;;;;;;;4.40;2.30;;;;;;;;;;2059581;28;20039;-78
2023/03/30 04:32:02;;;;;;;2.80;2.35;;;;;;;;;;2059014;28;20027;-80
2023/03/30 04:33:22;;;;;;;;;;;;;;;;;;2060751;28;20046;-80
2023/03/30 04:34:44;;;;;;;2.83;1.83;;;;;;;;;;2056131;28;19914;-79
2023/03/30 04:36:03;;;;;;;2.67;2.40;;;;;;;;;;2059470;28;20039;-79
2023/03/30 04:37:29;;;;;;;4.78;2.10;;;;;;;;;;2068573;28;20031;-81
2023/03/30 04:38:58;;;;;;;3.38;1.77;;;;;;;;;;2073313;28;20074;-79
2023/03/30 04:40:17;;;;;;;3.25;2.10;;;;;;;;;;2061809;28;20133;-78
2023/03/30 04:41:36;;;;;;;4.10;1.75;;;;;;;;;;2057283;28;20035;-78
2023/03/30 04:43:00;;;;;;;6.25;2.20;;;;;;;;;;2060730;28;20030;-77
2023/03/30 04:44:20;;;;;;;2.13;1.90;;;;;;;;;;2057127;28;20042;-78
2023/03/30 04:45:39;;;;;;;2.53;1.88;;;;;;;;;;2059729;28;20026;-78
2023/03/30 04:46:58;;;;;;;2.83;2.10;;;;;;;;;;2059236;28;20483;-78
2023/03/30 04:48:18;;;;;;;2.33;2.10;;;;;;;;;;2066603;28;20519;-76
2023/03/30 04:49:37;;;;;;;4.45;1.90;;;;;;;;;;2063199;28;20031;-81
2023/03/30 04:50:56;;;;;;;2.47;2.05;;;;;;;;;;2058478;28;20019;-78
2023/03/30 04:52:15;;;;;;;2.38;2.10;;;;;;;;;;2061223;28;20026;-78
2023/03/30 04:53:35;;;;;;;3.88;1.92;;;;;;;;;;2058682;28;20031;-77
2023/03/30 04:54:54;;;;;;;4.45;1.83;;;;;;;;;;2057297;28;20113;-80
2023/03/30 04:56:12;;;;;;;5.18;1.90;;;;;;;;;;2058133;28;20038;-77
2023/03/30 04:57:31;;;;;;;2.17;1.98;;;;;;;;;;2055498;28;20511;-78
2023/03/30 04:58:50;;;;;;;2.17;1.98;;;;;;;;;;2058323;28;20035;-77
2023/03/30 05:00:11;;;;;;;3.92;2.28;;;;;;;;;;2057759;28;20039;-77
2023/03/30 05:01:30;;;;;;;3.45;2.40;;;;;;;;;;2056223;28;20035;-77
2023/03/30 05:02:49;;;;;;;4.22;2.17;;;;;;;;;;2054313;28;20478;-79
2023/03/30 05:04:08;;;;;;;2.53;1.65;;;;;;;;;;2058775;28;20022;-77
2023/03/30 05:05:27;;;;;;;5.50;2.10;;;;;;;;;;2054471;28;20035;-77
2023/03/30 05:06:48;;;;;;;5.47;1.60;;;;;;;;;;2060286;28;20053;-77
2023/03/30 05:08:07;;;;;;;2.00;1.77;;;;;;;;;;2058070;28;20035;-77
2023/03/30 05:09:27;;;;;;;3.05;2.03;;;;;;;;;;2057153;28;20111;-77
2023/03/30 05:10:46;;;;;;;3.03;1.83;;;;;;;;;;2055876;28;20026;-78
2023/03/30 05:12:04;;;;;;;2.55;1.83;;;;;;;;;;2061004;28;20043;-78
2023/03/30 05:13:23;;;;;;;3.30;1.98;;;;;;;;;;2058894;28;20027;-78
2023/03/30 05:14:42;;;;;;;3.08;2.15;;;;;;;;;;2062438;28;20026;-79
2023/03/30 05:16:01;;;;;;;5.13;1.80;;;;;;;;;;2059510;28;20686;-78
2023/03/30 05:17:20;;;;;;;3.92;1.90;;;;;;;;;;2060613;28;20022;-79
2023/03/30 05:18:39;;;;;;;2.80;1.52;;;;;;;;;;2060346;28;20031;-79
2023/03/30 05:19:58;;;;;;;3.00;1.77;;;;;;;;;;2060988;28;20868;-79
2023/03/30 05:21:17;;;;;;;3.95;1.70;;;;;;;;;;2060049;28;20038;-79
2023/03/30 05:22:36;;;;;;;3.40;1.80;;;;;;;;;;2055817;28;20027;-79
2023/03/30 05:23:55;;;;;;;4.07;2.17;;;;;;;;;;2056308;28;20031;-78
2023/03/30 05:25:15;;;;;;;2.97;1.58;;;;;;;;;;2058780;28;20500;-78
2023/03/30 05:26:34;;;;;;;4.88;2.03;;;;;;;;;;2057652;28;20599;-79
2023/03/30 05:27:54;;;;;;;3.70;1.50;;;;;;;;;;2057775;28;20444;-79
2023/03/30 05:29:13;;;;;;;2.25;1.85;;;;;;;;;;2053532;28;20023;-80
2023/03/30 05:30:32;;;;;;;6.88;1.77;;;;;;;;;;2054288;28;20424;-78
2023/03/30 05:31:51;;;;;;;1.73;1.63;;;;;;;;;;2058616;28;20034;-79
2023/03/30 05:33:11;;;;;;;2.97;1.50;;;;;;;;;;2058594;28;20658;-78
2023/03/30 05:34:30;;;;;;;5.60;1.90;;;;;;;;;;2068787;28;20039;-78
2023/03/30 05:35:49;;;;;;;2.45;1.85;;;;;;;;;;2060048;28;20027;-78
2023/03/30 05:37:09;;;;;;;8.45;2.25;;;;;;;;;;2059909;28;20032;-78
2023/03/30 05:38:28;;;;;;;6.05;1.98;;;;;;;;;;2063966;28;20553;-79
2023/03/30 05:39:47;;;;;;;2.95;1.90;;;;;;;;;;2065225;28;20171;-78
2023/03/30 05:41:06;;;;;;;4.10;2.00;;;;;;;;;;2067990;28;20047;-78
2023/03/30 05:42:26;;;;;;;4.78;2.00;;;;;;;;;;2066277;28;20050;-78
2023/03/30 05:43:46;;;;;;;1.85;1.60;;;;;;;;;;2068938;28;20110;-79
2023/03/30 05:45:06;;;;;;;4.85;1.83;;;;;;;;;;2067727;28;20030;-78
2023/03/30 05:46:26;;;;;;;4.50;1.90;;;;;;;;;;2065908;28;20062;-78
2023/03/30 05:47:45;;;;;;;4.18;2.25;;;;;;;;;;2070513;28;20424;-78
2023/03/30 05:49:04;;;;;;;5.93;1.92;;;;;;;;;;2068693;28;20054;-79
2023/03/30 05:50:23;;;;;;;3.22;1.70;;;;;;;;;;2067924;28;20031;-78
2023/03/30 05:51:42;;;;;;;3.35;1.70;;;;;;;;;;2067815;28;20401;-80
2023/03/30 05:53:03;;;;;;;2.50;1.73;;;;;;;;;;2064200;28;20054;-79
2023/03/30 05:54:22;;;;;;;4.70;1.95;;;;;;;;;;2062965;28;20027;-79
2023/03/30 05:55:48;;;;;;;3.00;2.00;;;;;;;;;;2063393;28;20035;-78
2023/03/30 05:57:07;;;;;;;3.97;2.55;;;;;;;;;;2059277;28;20015;-79
2023/03/30 05:58:26;;;;;;;1.63;1.52;;;;;;;;;;2056460;28;20034;-79
2023/03/30 05:59:46;;;;;;;3.45;1.90;;;;;;;;;;2058819;28;20031;-79
2023/03/30 06:01:05;;;;;;;2.35;1.80;;;;;;;;;;2066593;28;20030;-80
2023/03/30 06:02:24;;;;;;;3.55;1.80;;;;;;;;;;2074835;28;20022;-79
2023/03/30 06:03:43;;;;;;;1.55;1.30;;;;;;;;;;2065414;28;20022;-79
2023/03/30 06:05:03;;;;;;;3.22;2.00;;;;;;;;;;2058825;28;20117;-79
2023/03/30 06:06:22;;;;;;;5.82;1.80;;;;;;;;;;2058616;28;20018;-79
2023/03/30 06:07:42;;;;;;;1.80;1.70;;;;;;;;;;2060224;28;20098;-78
2023/03/30 06:09:02;;;;;;;3.10;1.77;;;;;;;;;;2061703;28;20030;-81
2023/03/30 06:10:21;;;;;;;4.88;1.80;;;;;;;;;;2062828;28;20480;-78
2023/03/30 06:11:40;;;;;;;6.13;2.50;;;;;;;;;;2060690;28;20475;-78
2023/03/30 06:13:00;;;;;;;6.28;1.90;;;;;;;;;;2060052;28;20449;-79
2023/03/30 06:14:19;;;;;;;4.85;2.13;;;;;;;;;;2061466;28;20034;-78
2023/03/30 06:15:37;;;;;;;3.67;2.15;;;;;;;;;;2060079;28;20038;-78
2023/03/30 06:16:56;;;;;;;8.43;2.47;;;;;;;;;;2069205;28;20026;-79
2023/03/30 06:18:15;;;;;;;7.43;2.58;;;;;;;;;;2058660;28;20035;-79
2023/03/30 06:19:38;;;;;;;9.82;3.35;;;;;;;;;;2062669;28;20043;-81
2023/03/30 06:20:57;;;;;;;9.35;3.20;;;;;;;;;;2060065;28;20071;-78
2023/03/30 06:22:16;;;;;;;12.27;2.90;;;;;;;;;;2062764;28;20046;-78
2023/03/30 06:23:36;;;;;;;5.25;3.22;;;;;;;;;;2063506;28;20042;-78
2023/03/30 06:24:54;;;;;;;6.47;1.80;;;;;;;;;;2060339;28;20022;-78
2023/03/30 06:26:14;;;;;;;3.85;1.63;;;;;;;;;;2056722;28;20035;-79
2023/03/30 06:27:33;;;;;;;4.18;1.67;;;;;;;;;;2059702;28;20119;-78
2023/03/30 06:28:52;;;;;;;3.08;2.30;;;;;;;;;;2055947;28;20030;-78
2023/03/30 06:30:12;;;;;;;1.88;1.63;;;;;;;;;;2056467;28;20459;-79
2023/03/30 06:31:30;;;;;;;2.72;1.95;;;;;;;;;;2061304;28;20066;-80
2023/03/30 06:32:49;;;;;;;4.20;1.60;;;;;;;;;;2061184;28;20035;-78
2023/03/30 06:34:08;;;;;;;2.35;2.15;;;;;;;;;;2055414;28;20027;-79
2023/03/30 06:35:28;;;;;;;4.38;2.20;;;;;;;;;;2060498;28;20030;-79
2023/03/30 06:36:47;;;;;;;5.53;1.83;;;;;;;;;;2060869;28;20039;-79
2023/03/30 06:38:06;;;;;;;7.30;3.53;;;;;;;;;;2060061;28;20487;-82
2023/03/30 06:39:25;;;;;;;5.95;2.75;;;;;;;;;;2060698;28;20125;-78
2023/03/30 06:40:44;;;;;;;12.25;3.80;;;;;;;;;;2056175;28;20031;-80
2023/03/30 06:42:05;;;;;;;8.95;3.53;;;;;;;;;;2059778;28;20034;-80
2023/03/30 06:43:24;;;;;;;10.02;3.40;;;;;;;;;;2062247;28;20022;-80
2023/03/30 06:44:43;;;;;;;22.65;4.78;;;;;;;;;;2058529;28;20035;-79
2023/03/30 06:46:02;;;;;;;18.75;4.45;;;;;;;;;;2056126;28;20023;-79
2023/03/30 06:47:21;;;;;;;8.10;2.58;;;;;;;;;;2058318;28;20034;-78
2023/03/30 06:48:41;;;;;;;6.05;2.60;;;;;;;;;;2060940;28;20045;-81
2023/03/30 06:50:03;;;;;;;4.55;1.95;;;;;;;;;;2066965;28;20415;-81
2023/03/30 06:51:26;;;;;;;5.78;2.90;;;;;;;;;;2062735;28;20105;-79
2023/03/30 06:52:47;;;;;;;4.00;2.92;;;;;;;;;;2060442;28;20539;-79
2023/03/30 06:54:06;;;;;;;16.38;3.13;;;;;;;;;;2059543;28;20034;-79
2023/03/30 06:55:25;;;;;;;14.85;2.83;;;;;;;;;;2055548;28;20026;-79
2023/03/30 06:56:44;;;;;;;6.85;2.10;;;;;;;;;;2057464;28;20117;-79
2023/03/30 06:58:03;;;;;;;3.65;2.03;;;;;;;;;;2071204;28;20034;-79
2023/03/30 06:59:21;;;;;;;7.13;2.47;;;;;;;;;;2067920;28;20122;-78
2023/03/30 07:00:40;;;;;;;7.00;2.25;;;;;;;;;;2056841;28;20436;-79
2023/03/30 07:01:59;;;;;;;12.10;2.78;;;;;;;;;;2062310;28;20478;-79
2023/03/30 07:03:19;;;;;;;5.32;1.67;;;;;;;;;;2058551;28;20042;-79
2023/03/30 07:04:38;;;;;;;8.07;1.60;;;;;;;;;;2056437;28;20105;-79
2023/03/30 07:05:57;;;;;;;3.63;1.77;;;;;;;;;;2058698;28;20035;-79
2023/03/30 07:07:16;;;;;;;4.15;1.85;;;;;;;;;;2060658;28;20031;-79
2023/03/30 07:08:36;;;;;;;1.92;1.48;;;;;;;;;;2058834;28;20122;-79
2023/03/30 07:09:55;;;;;;;3.25;1.58;;;;;;;;;;2060409;28;20035;-79
2023/03/30 07:11:14;;;;;;;2.30;1.73;;;;;;;;;;2059891;28;20033;-79
2023/03/30 07:12:33;;;;;;;7.60;1.80;;;;;;;;;;2061454;28;20039;-79
2023/03/30 07:13:55;;;;;;;2.05;1.38;;;;;;;;;;2068130;28;20057;-79
2023/03/30 07:15:14;;;;;;;5.50;1.60;;;;;;;;;;2059319;28;20026;-81
2023/03/30 07:16:33;;;;;;;1.60;1.50;;;;;;;;;;2059742;28;20496;-81
2023/03/30 07:17:52;;;;;;;1.83;1.60;;;;;;;;;;2059951;28;20114;-79
2023/03/30 07:19:12;;;;;;;2.83;1.33;;;;;;;;;;2058242;28;20035;-78
2023/03/30 07:20:31;;;;;;;4.28;1.50;;;;;;;;;;2059641;28;20411;-78
2023/03/30 07:21:50;;;;;;;1.55;1.45;;;;;;;;;;2056555;28;20027;-79
2023/03/30 07:23:10;;;;;;;1.90;1.63;;;;;;;;;;2057745;28;20400;-78
2023/03/30 07:24:30;;;;;;;3.03;1.83;;;;;;;;;;2057465;28;20030;-78
2023/03/30 07:25:50;;;;;;;1.45;1.33;;;;;;;;;;2061398;28;20031;-78
2023/03/30 07:27:09;;;;;;;1.73;1.50;;;;;;;;;;2059269;28;20039;-78
2023/03/30 07:28:28;;;;;;;3.05;1.80;;;;;;;;;;2059597;28;20511;-78
2023/03/30 07:29:47;;;;;;;1.42;1.33;;;;;;;;;;2060347;28;20483;-78
2023/03/30 07:31:07;;;;;;;1.88;1.65;;;;;;;;;;2060615;28;20042;-78
2023/03/30 07:32:26;;;;;;;3.05;1.40;;;;;;;;;;2059542;28;20034;-78
2023/03/30 07:33:45;;;;;;;3.67;1.50;;;;;;;;;;2062372;28;20524;-79
2023/03/30 07:35:04;;;;;;;2.05;1.50;;;;;;;;;;2060806;28;20086;-78
2023/03/30 07:36:23;;;;;;;2.95;1.30;;;;;;;;;;2059410;28;20031;-78
2023/03/30 07:37:42;;;;;;;1.30;1.20;;;;;;;;;;2059364;28;20067;-79
2023/03/30 07:39:01;;;;;;;2.88;1.40;;;;;;;;;;2059380;28;20562;-78
2023/03/30 07:40:21;;;;;;;1.83;1.35;;;;;;;;;;2057006;28;20045;-78
2023/03/30 07:41:40;;;;;;;1.48;1.10;;;;;;;;;;2066726;28;20030;-78
2023/03/30 07:42:59;;;;;;;1.55;1.40;;;;;;;;;;2071974;28;20026;-78
2023/03/30 07:44:18;;;;;;;7.32;1.50;;;;;;;;;;2067620;28;20034;-78
2023/03/30 07:45:37;;;;;;;1.98;1.30;;;;;;;;;;2048975;28;20043;-78
2023/03/30 07:46:56;;;;;;;3.45;1.75;;;;;;;;;;2057103;28;20038;-78
2023/03/30 07:48:16;;;;;;;2.38;1.33;;;;;;;;;;2059865;28;20039;-78
2023/03/30 07:49:35;;;;;;;2.30;1.67;;;;;;;;;;2060127;28;20241;-78
2023/03/30 07:51:05;;;;;;;2.70;1.42;;;;;;;;;;2059670;28;20026;-78
2023/03/30 07:52:24;;;;;;;12.45;2.10;;;;;;;;;;2067630;28;20387;-78
2023/03/30 07:53:46;;;;;;;11.30;2.33;;;;;;;;;;2058774;28;20447;-78
2023/03/30 07:55:06;;;;;;;5.22;1.63;;;;;;;;;;2059681;28;20027;-78
2023/03/30 07:56:25;;;;;;;4.78;1.92;;;;;;;;;;2059754;28;20075;-79
2023/03/30 07:57:45;;;;;;;4.85;1.45;;;;;;;;;;2055963;28;20542;-78
2023/03/30 07:59:04;;;;;;;3.67;1.40;;;;;;;;;;2073101;28;20133;-78
2023/03/30 08:00:24;;;;;;;18.17;2.90;;;;;;;;;;2061159;28;20484;-79
2023/03/30 08:01:43;;;;;;;5.25;1.45;;;;;;;;;;2061519;28;20038;-78
2023/03/30 08:03:03;;;;;;;11.35;1.70;;;;;;;;;;2059849;28;20022;-78
2023/03/30 08:04:24;;;;;;;7.50;1.52;;;;;;;;;;2060337;28;20416;-78
2023/03/30 08:05:50;;;;;;;7.53;1.63;;;;;;;;;;2058382;28;20023;-79
2023/03/30 08:07:10;;;;;;;2.38;1.40;;;;;;;;;;2059757;28;20046;-78